Almond, NY

12:12 AM EST on January 27, 2015 (GMT -0500)
Ardachy Farm | Change Station
CLOSE
Current Station
Personal Weather Station
Location: Alfred Station, NY
Elevation: 1877 ft
Nearby Weather Stations

Elev 1877 ft 42.28 °N, 77.77 °W | Updated 52 seconds ago

Snow
Snow
9.9 °F
Feels Like 4 °F
N
3.1
Wind Variable Wind from NNW
Gusts 3.8 mph

Today
High -- | Low -- °F
--% Chance of Precip.
Yesterday
High -- | Low -- °F
Precip. -- in
7:29 AM 5:18 PM
Waxing Crescent, 50% visible
Pressure 29.90 in
Visibility 8.0 miles
Clouds Mostly Cloudy 3100 ft
Overcast 3900 ft
Windchill 4 °F
Dew Point 7 °F
Humidity 89%
Rainfall 0.00 in
Snow Depth Not available.
UV 0 out of 12
Pollen .10 out of 12
Air Quality Not available.
Flu Activity Not available.
METAR KELZ 270456Z AUTO 01005KT 8SM -SN BKN031 OVC039 M11/M13 A2978 RMK AO2 SLP124 P0000 T11111133 410941128

More Conditions Fewer Conditions

Pressure 29.90 in
Visibility 8.0 miles
Clouds Mostly Cloudy 3100 ft
Overcast 3900 ft
Windchill 4 °F
Dew Point 7 °F
Humidity 89%
Rainfall 0.00 in
Snow Depth Not available.
UV 0 out of 12
Pollen .10 out of 12
Air Quality Not available.
Flu Activity Not available.
METAR KELZ 270456Z AUTO 01005KT 8SM -SN BKN031 OVC039 M11/M13 A2978 RMK AO2 SLP124 P0000 T11111133 410941128

More Conditions Fewer Conditions

10-Day Weather Forecast

Almanac

Astronomy

Jan. 27, 2015 Rise Set
Actual Time
Civil Twilight
Nautical Twilight
Astronomical Twilight
Moon
Length of Visible Light
Length of Day
Tomorrow will be .
, % of the Moon is Illuminated

Today's Extremes

State Highs State Lows

Community

WunderPhotos

Upload Photos

1,790,534 photos uploaded!

WunderBlogs® & News

Nearby

Air Quality

  Air Quality AQ Index Pollutant
Not available.

Snow Depth

Station Depth Elevation

Earthquake Activity

City Distance Mag. Time & Date
Minimum magnitude displayed is 2.5.

Coastal Water Temperatures

Place Temperature

Nearby Weather Stations